Time;durP1;ratioP1;P1;durP2;ratioP2;P2;SDS_P1;SDS_P2;PMS_P1;PMS_P2;Temp;Humidity;BMP_temperature;BMP_pressure;BME280_temperature;BME280_humidity;BME280_pressure;Samples;Min_cycle;Max_cycle;Signal;HPM_P1;HPM_P2
2022/04/14 00:00:34;;;;;;;1.70;0.50;;;12.30;99.90;;;;;;5010854;28;20466;-68
2022/04/14 00:03:00;;;;;;;0.40;0.20;;;12.30;99.90;;;;;;5011673;28;20873;-67
2022/04/14 00:05:26;;;;;;;0.40;0.20;;;12.40;99.90;;;;;;5025179;28;20980;-68
2022/04/14 00:07:51;;;;;;;1.50;0.80;;;12.30;99.90;;;;;;5010992;28;21047;-67
2022/04/14 00:10:17;;;;;;;1.00;0.50;;;12.30;99.90;;;;;;5015211;28;20412;-67
2022/04/14 00:12:43;;;;;;;0.40;0.20;;;12.30;99.90;;;;;;5010887;28;20393;-67
2022/04/14 00:15:11;;;;;;;0.40;0.28;;;12.30;99.90;;;;;;5010984;28;20484;-67
2022/04/14 00:17:37;;;;;;;0.40;0.40;;;12.20;99.90;;;;;;5011506;28;20401;-67
2022/04/14 00:20:08;;;;;;;0.40;0.20;;;12.20;99.90;;;;;;5010542;28;20397;-67
2022/04/14 00:22:34;;;;;;;0.40;0.20;;;12.20;99.90;;;;;;5011338;28;20401;-67
2022/04/14 00:25:00;;;;;;;0.40;0.30;;;12.20;99.90;;;;;;5010656;28;20397;-67
2022/04/14 00:27:26;;;;;;;0.40;0.30;;;12.10;99.90;;;;;;5011502;28;20420;-67
2022/04/14 00:29:52;;;;;;;0.40;0.20;;;12.20;99.90;;;;;;5010506;28;20750;-68
2022/04/14 00:32:18;;;;;;;0.40;0.20;;;12.10;99.90;;;;;;5011322;28;20485;-68
2022/04/14 00:34:43;;;;;;;0.60;0.60;;;12.20;99.90;;;;;;5011067;28;20523;-68
2022/04/14 00:37:10;;;;;;;0.40;0.20;;;12.10;99.90;;;;;;5010211;28;20435;-67
2022/04/14 00:39:39;;;;;;;0.40;0.30;;;12.10;99.90;;;;;;5011114;28;20424;-67
2022/04/14 00:42:13;;;;;;;0.40;0.20;;;12.10;99.90;;;;;;5010104;28;20874;-68
2022/04/14 00:44:39;;;;;;;0.40;0.30;;;12.00;99.90;;;;;;5010483;28;20428;-67
2022/04/14 00:47:06;;;;;;;0.40;0.20;;;12.00;99.90;;;;;;5026047;28;20412;-67
2022/04/14 00:49:36;;;;;;;0.40;0.20;;;12.00;99.90;;;;;;5008637;28;20412;-67
2022/04/14 00:52:03;;;;;;;0.40;0.30;;;12.00;99.90;;;;;;5025749;28;20742;-67
2022/04/14 00:54:30;;;;;;;0.40;0.20;;;12.00;99.90;;;;;;5010153;28;20615;-67
2022/04/14 00:57:00;;;;;;;0.40;0.20;;;12.00;99.90;;;;;;5010676;28;20417;-67
2022/04/14 00:59:27;;;;;;;0.40;0.20;;;11.90;99.90;;;;;;5005313;28;20403;-67
2022/04/14 01:01:57;;;;;;;0.40;0.20;;;11.90;99.90;;;;;;5025635;28;20413;-68
2022/04/14 01:04:25;;;;;;;0.40;0.20;;;11.90;99.90;;;;;;5002897;28;20398;-68
2022/04/14 01:06:51;;;;;;;0.40;0.20;;;11.90;99.90;;;;;;5006079;28;20412;-68
2022/04/14 01:09:20;;;;;;;0.40;0.20;;;12.00;99.90;;;;;;5011361;28;20405;-68
2022/04/14 01:11:47;;;;;;;0.40;0.30;;;11.90;99.90;;;;;;5009294;28;20586;-68
2022/04/14 01:14:36;;;;;;;0.50;0.50;;;11.90;99.90;;;;;;5010298;28;20404;-68
2022/04/14 01:17:08;;;;;;;0.80;0.75;;;11.90;99.90;;;;;;5010568;28;20571;-68
2022/04/14 01:19:35;;;;;;;0.40;0.20;;;11.80;99.90;;;;;;5010073;28;20734;-69
2022/04/14 01:22:06;;;;;;;0.40;0.20;;;11.80;99.90;;;;;;5010417;28;20395;-67
2022/04/14 01:24:32;;;;;;;0.40;0.20;;;11.90;99.90;;;;;;5010727;28;20890;-68
2022/04/14 01:27:00;;;;;;;0.40;0.20;;;11.90;99.90;;;;;;5010191;28;20396;-67
2022/04/14 01:29:28;;;;;;;0.40;0.20;;;11.80;99.90;;;;;;5010926;28;20396;-68
2022/04/14 01:31:55;;;;;;;0.40;0.30;;;11.80;99.90;;;;;;5011584;28;20403;-68
2022/04/14 01:34:21;;;;;;;0.50;0.47;;;11.80;99.90;;;;;;5014545;28;20396;-68
2022/04/14 01:36:47;;;;;;;0.40;0.30;;;11.70;99.90;;;;;;5013972;28;20424;-68
2022/04/14 01:39:13;;;;;;;0.40;0.30;;;11.60;99.90;;;;;;5014685;28;20479;-68
2022/04/14 01:41:43;;;;;;;0.40;0.30;;;11.60;99.90;;;;;;5014445;28;20397;-67
2022/04/14 01:44:10;;;;;;;0.40;0.20;;;11.60;99.90;;;;;;5013187;28;20396;-68
2022/04/14 01:46:41;;;;;;;0.40;0.20;;;11.60;99.90;;;;;;5013235;28;20403;-68
2022/04/14 01:49:08;;;;;;;0.40;0.30;;;11.40;99.90;;;;;;5013198;28;20512;-68
2022/04/14 01:51:35;;;;;;;0.40;0.30;;;11.30;99.90;;;;;;4995060;28;20382;-67
2022/04/14 01:54:01;;;;;;;0.40;0.20;;;11.40;99.90;;;;;;5028248;28;20423;-68
2022/04/14 01:56:26;;;;;;;0.40;0.30;;;11.30;99.90;;;;;;5013952;28;21017;-68
2022/04/14 01:58:52;;;;;;;0.40;0.20;;;11.30;99.90;;;;;;5013311;28;20404;-68
2022/04/14 02:01:18;;;;;;;0.90;0.90;;;11.30;99.90;;;;;;5013058;28;21037;-68
2022/04/14 02:03:44;;;;;;;0.40;0.30;;;11.30;99.90;;;;;;5029361;28;20407;-67
2022/04/14 02:06:10;;;;;;;0.40;0.20;;;11.30;99.90;;;;;;5013089;28;20392;-68
2022/04/14 02:08:36;;;;;;;0.40;0.20;;;11.20;99.90;;;;;;5013815;28;20454;-68
2022/04/14 02:11:03;;;;;;;0.40;0.20;;;11.10;99.90;;;;;;5028801;28;20448;-67
2022/04/14 02:13:30;;;;;;;0.40;0.20;;;11.00;99.90;;;;;;5019019;28;20404;-68
2022/04/14 02:15:56;;;;;;;0.40;0.30;;;10.90;99.90;;;;;;5013421;28;20412;-68
2022/04/14 02:18:22;;;;;;;0.40;0.20;;;10.90;99.90;;;;;;5013155;28;20401;-68
2022/04/14 02:20:47;;;;;;;0.40;0.20;;;11.00;99.90;;;;;;5013964;28;20415;-68
2022/04/14 02:23:13;;;;;;;0.40;0.20;;;11.00;99.90;;;;;;5012950;28;20479;-69
2022/04/14 02:25:39;;;;;;;0.40;0.30;;;11.00;99.90;;;;;;5013233;28;20424;-68
2022/04/14 02:28:05;;;;;;;0.40;0.20;;;11.00;99.90;;;;;;5013821;28;20480;-68
2022/04/14 02:30:33;;;;;;;0.40;0.30;;;11.00;99.90;;;;;;5018711;28;20519;-68
2022/04/14 02:32:59;;;;;;;0.40;0.30;;;11.00;99.90;;;;;;5013726;28;20476;-67
2022/04/14 02:35:25;;;;;;;0.40;0.20;;;10.90;99.90;;;;;;5012657;28;20448;-68
2022/04/14 02:37:51;;;;;;;0.40;0.20;;;10.90;99.90;;;;;;5012870;28;20436;-68
2022/04/14 02:40:17;;;;;;;0.40;0.20;;;10.90;99.90;;;;;;5013182;28;20451;-68
2022/04/14 02:42:43;;;;;;;0.40;0.20;;;10.90;99.90;;;;;;5012568;28;21211;-68
2022/04/14 02:45:09;;;;;;;0.40;0.30;;;10.90;99.90;;;;;;5013412;28;20488;-68
2022/04/14 02:47:35;;;;;;;0.40;0.20;;;11.00;99.90;;;;;;5011991;28;20398;-68
2022/04/14 02:50:03;;;;;;;0.40;0.22;;;11.10;99.90;;;;;;5012868;28;20422;-68
2022/04/14 02:52:29;;;;;;;0.40;0.20;;;11.10;99.90;;;;;;5013076;28;20401;-68
2022/04/14 02:54:55;;;;;;;0.40;0.20;;;11.10;99.90;;;;;;5012545;28;20849;-68
2022/04/14 02:57:20;;;;;;;0.40;0.20;;;11.20;99.90;;;;;;5013049;28;20433;-68
2022/04/14 02:59:46;;;;;;;0.40;0.20;;;11.30;99.90;;;;;;5009817;28;20430;-68
2022/04/14 03:02:12;;;;;;;0.40;0.30;;;11.40;99.90;;;;;;5013284;28;20912;-68
2022/04/14 03:04:37;;;;;;;0.40;0.20;;;11.50;99.90;;;;;;5001027;28;20416;-69
2022/04/14 03:07:03;;;;;;;0.40;0.20;;;11.50;99.90;;;;;;5009919;28;20392;-68
2022/04/14 03:09:29;;;;;;;0.75;0.75;;;11.40;99.90;;;;;;5015193;28;20893;-68
2022/04/14 03:11:55;;;;;;;0.40;0.30;;;11.40;99.90;;;;;;5022296;28;20395;-68
2022/04/14 03:14:20;;;;;;;0.40;0.20;;;11.50;99.90;;;;;;5012987;28;20389;-68
2022/04/14 03:16:46;;;;;;;0.40;0.30;;;11.50;99.90;;;;;;5012738;28;20882;-70
2022/04/14 03:19:12;;;;;;;0.40;0.20;;;11.50;99.90;;;;;;5011664;28;20412;-69
2022/04/14 03:21:37;;;;;;;0.80;0.60;;;11.60;99.90;;;;;;5012722;28;20848;-69
2022/04/14 03:24:04;;;;;;;0.40;0.20;;;11.60;99.90;;;;;;5011526;28;20742;-70
2022/04/14 03:26:31;;;;;;;1.10;1.00;;;11.60;99.90;;;;;;5012253;28;20397;-67
2022/04/14 03:28:57;;;;;;;0.40;0.20;;;11.60;99.90;;;;;;5012114;28;20715;-70
2022/04/14 03:31:22;;;;;;;0.40;0.20;;;11.40;99.90;;;;;;5012420;28;20400;-69
2022/04/14 03:33:48;;;;;;;0.80;0.80;;;11.40;99.90;;;;;;5012149;28;20539;-67
2022/04/14 03:36:14;;;;;;;0.40;0.30;;;11.30;99.90;;;;;;5010015;28;20427;-68
2022/04/14 03:38:40;;;;;;;0.40;0.30;;;11.30;99.90;;;;;;5012321;28;20505;-68
2022/04/14 03:41:07;;;;;;;0.40;0.20;;;11.30;99.90;;;;;;5011566;28;20420;-69
2022/04/14 03:43:35;;;;;;;0.40;0.40;;;11.40;99.90;;;;;;5011036;28;20436;-68
2022/04/14 03:46:02;;;;;;;0.40;0.20;;;11.30;99.90;;;;;;5012367;28;20400;-68
2022/04/14 03:48:28;;;;;;;0.40;0.40;;;11.30;99.90;;;;;;5011310;28;20405;-68
2022/04/14 03:50:57;;;;;;;0.40;0.20;;;11.20;99.90;;;;;;5012050;28;20525;-68
2022/04/14 03:53:23;;;;;;;0.40;0.20;;;11.10;99.90;;;;;;5011385;28;20459;-68
2022/04/14 03:55:48;;;;;;;0.47;0.40;;;11.20;99.90;;;;;;5011442;28;20409;-68
2022/04/14 03:58:15;;;;;;;0.40;0.30;;;11.20;99.90;;;;;;5027065;28;20406;-68
2022/04/14 04:00:41;;;;;;;0.40;0.20;;;11.20;99.90;;;;;;5011553;28;20589;-68
2022/04/14 04:03:09;;;;;;;0.40;0.20;;;11.20;99.90;;;;;;5011874;28;20466;-69
2022/04/14 04:05:35;;;;;;;0.40;0.20;;;11.10;99.90;;;;;;5011035;28;20397;-70
2022/04/14 04:08:02;;;;;;;0.40;0.20;;;11.10;99.90;;;;;;5012022;28;20742;-69
2022/04/14 04:10:28;;;;;;;0.40;0.30;;;11.20;99.90;;;;;;5021113;28;21089;-70
2022/04/14 04:12:53;;;;;;;0.40;0.30;;;11.00;99.90;;;;;;5016302;28;20485;-69
2022/04/14 04:15:19;;;;;;;0.40;0.23;;;11.00;99.90;;;;;;5011184;28;20600;-69
2022/04/14 04:17:46;;;;;;;0.40;0.30;;;11.00;99.90;;;;;;5010882;28;20393;-69
2022/04/14 04:20:12;;;;;;;0.40;0.30;;;11.10;99.90;;;;;;5011891;28;20400;-69
2022/04/14 04:22:40;;;;;;;0.40;0.20;;;10.90;99.90;;;;;;5010292;28;20405;-69
2022/04/14 04:25:06;;;;;;;0.40;0.20;;;10.90;99.90;;;;;;5026947;28;20405;-69
2022/04/14 04:27:32;;;;;;;0.40;0.30;;;10.80;99.90;;;;;;5011180;28;20446;-69
2022/04/14 04:29:58;;;;;;;0.40;0.20;;;10.70;99.90;;;;;;5011342;28;20472;-69
2022/04/14 04:32:24;;;;;;;0.40;0.20;;;10.80;99.90;;;;;;5011215;28;20396;-68
2022/04/14 04:34:49;;;;;;;0.40;0.20;;;10.80;99.90;;;;;;5010710;28;20492;-69
2022/04/14 04:37:15;;;;;;;0.70;0.70;;;10.80;99.90;;;;;;5010120;28;20428;-69
2022/04/14 04:39:42;;;;;;;0.80;0.60;;;10.70;99.90;;;;;;5010298;28;20428;-70
2022/04/14 04:42:08;;;;;;;0.40;0.30;;;10.80;99.90;;;;;;5010642;28;20877;-69
2022/04/14 04:44:33;;;;;;;0.40;0.20;;;10.80;99.90;;;;;;5011292;28;20425;-69
2022/04/14 04:46:59;;;;;;;0.40;0.40;;;10.80;99.90;;;;;;5010522;28;20400;-69
2022/04/14 04:49:25;;;;;;;0.40;0.20;;;10.70;99.90;;;;;;5010822;28;20392;-69
2022/04/14 04:51:51;;;;;;;9.30;1.40;;;10.60;99.90;;;;;;5010340;28;20443;-70
2022/04/14 04:54:16;;;;;;;0.50;0.40;;;10.60;99.90;;;;;;5011095;28;20393;-69
2022/04/14 04:56:42;;;;;;;0.40;0.40;;;10.60;99.90;;;;;;5010838;28;20917;-70
2022/04/14 04:59:08;;;;;;;0.40;0.30;;;10.60;99.90;;;;;;5009139;28;20477;-69
2022/04/14 05:01:34;;;;;;;0.40;0.20;;;10.60;99.90;;;;;;5016016;28;20402;-69
2022/04/14 05:03:59;;;;;;;0.60;0.60;;;10.50;99.90;;;;;;4997470;28;20462;-70
2022/04/14 05:06:25;;;;;;;0.40;0.40;;;10.60;99.90;;;;;;5009835;28;20443;-69
2022/04/14 05:08:51;;;;;;;0.47;0.40;;;10.70;99.90;;;;;;5009681;28;20400;-69
2022/04/14 05:11:16;;;;;;;0.40;0.30;;;10.70;99.90;;;;;;5041603;28;20468;-69
2022/04/14 05:13:42;;;;;;;3.10;1.00;;;10.60;99.90;;;;;;5007528;28;20561;-69
2022/04/14 05:16:09;;;;;;;0.40;0.20;;;10.70;99.90;;;;;;5006339;28;20407;-70
2022/04/14 05:18:34;;;;;;;0.40;0.22;;;10.70;99.90;;;;;;5011556;28;20410;-69
2022/04/14 05:21:00;;;;;;;0.60;0.60;;;10.60;99.90;;;;;;5019919;28;20395;-69
2022/04/14 05:23:26;;;;;;;0.40;0.30;;;10.70;99.90;;;;;;5003149;28;20399;-69
2022/04/14 05:25:51;;;;;;;0.40;0.40;;;10.60;99.90;;;;;;5004828;28;20444;-69
2022/04/14 05:28:17;;;;;;;0.40;0.20;;;10.70;99.90;;;;;;5006873;28;20402;-69
2022/04/14 05:30:43;;;;;;;0.80;0.80;;;10.80;99.90;;;;;;5021391;28;20399;-70
2022/04/14 05:33:10;;;;;;;0.60;0.50;;;10.80;99.90;;;;;;5006014;28;20394;-69
2022/04/14 05:35:41;;;;;;;0.40;0.20;;;10.90;99.90;;;;;;5007239;28;21246;-69
2022/04/14 05:38:07;;;;;;;0.40;0.20;;;11.00;99.90;;;;;;5014131;28;20984;-69
2022/04/14 05:40:33;;;;;;;0.40;0.20;;;11.10;99.90;;;;;;5013529;28;20397;-69
2022/04/14 05:42:58;;;;;;;0.80;0.80;;;11.10;99.90;;;;;;5003288;28;20416;-69
2022/04/14 05:45:25;;;;;;;0.40;0.30;;;11.10;99.90;;;;;;5010433;28;20407;-70
2022/04/14 05:47:51;;;;;;;0.40;0.20;;;11.10;99.90;;;;;;5013239;28;20397;-69
2022/04/14 05:50:17;;;;;;;0.40;0.30;;;11.20;99.90;;;;;;5002543;28;20890;-69
2022/04/14 05:52:43;;;;;;;0.40;0.20;;;11.30;99.90;;;;;;5008797;28;20424;-69
2022/04/14 05:55:09;;;;;;;0.40;0.20;;;11.30;99.90;;;;;;5001633;28;20889;-67
2022/04/14 05:57:35;;;;;;;0.50;0.25;;;11.40;99.90;;;;;;5005495;28;20513;-69
2022/04/14 06:00:01;;;;;;;0.40;0.40;;;11.30;99.90;;;;;;5009362;28;20400;-68
2022/04/14 06:02:27;;;;;;;0.40;0.40;;;11.30;99.90;;;;;;5010399;28;20411;-68
2022/04/14 06:04:53;;;;;;;0.40;0.30;;;11.40;99.90;;;;;;5008037;28;20903;-68
2022/04/14 06:07:19;;;;;;;0.40;0.30;;;11.50;99.90;;;;;;5025091;28;20409;-67
2022/04/14 06:09:44;;;;;;;0.70;0.70;;;11.60;99.90;;;;;;5014750;28;20899;-68
2022/04/14 06:12:11;;;;;;;0.40;0.20;;;11.70;99.90;;;;;;5011660;28;20672;-68
2022/04/14 06:14:36;;;;;;;0.70;0.70;;;11.70;99.90;;;;;;5008668;28;20488;-68
2022/04/14 06:17:02;;;;;;;0.40;0.20;;;11.70;99.90;;;;;;5005168;28;20956;-68
2022/04/14 06:19:28;;;;;;;0.40;0.20;;;11.90;99.90;;;;;;5002989;28;20403;-68
2022/04/14 06:21:54;;;;;;;0.40;0.20;;;11.90;99.90;;;;;;5005838;28;20388;-68
2022/04/14 06:24:20;;;;;;;0.40;0.30;;;11.90;99.90;;;;;;5014020;28;20911;-68
2022/04/14 06:26:45;;;;;;;0.40;0.20;;;11.90;99.90;;;;;;5031842;28;20411;-68
2022/04/14 06:29:11;;;;;;;0.70;0.70;;;12.00;99.90;;;;;;5016249;28;20410;-67
2022/04/14 06:31:37;;;;;;;0.40;0.20;;;12.10;99.90;;;;;;5021894;28;20401;-68
2022/04/14 06:34:06;;;;;;;0.40;0.20;;;12.20;99.90;;;;;;5012746;28;20516;-68
2022/04/14 06:36:32;;;;;;;0.40;0.30;;;12.20;99.90;;;;;;5016723;28;20442;-68
2022/04/14 06:38:58;;;;;;;0.40;0.23;;;12.30;99.90;;;;;;5006117;28;20843;-68
2022/04/14 06:41:25;;;;;;;0.40;0.30;;;12.40;99.90;;;;;;5006632;28;20428;-68
2022/04/14 06:43:52;;;;;;;0.80;0.50;;;12.40;99.90;;;;;;5012548;28;20752;-68
2022/04/14 06:46:18;;;;;;;0.40;0.20;;;12.60;99.90;;;;;;5012159;28;20396;-69
2022/04/14 06:48:44;;;;;;;0.40;0.30;;;12.70;99.90;;;;;;5019223;28;20405;-68
2022/04/14 06:51:11;;;;;;;0.40;0.20;;;12.80;99.90;;;;;;5026901;28;20754;-69
2022/04/14 06:53:38;;;;;;;0.40;0.30;;;12.90;99.90;;;;;;5009969;28;20911;-68
2022/04/14 06:56:05;;;;;;;0.40;0.20;;;13.00;99.90;;;;;;5012486;28;20428;-68
2022/04/14 06:58:31;;;;;;;0.50;0.50;;;13.00;99.90;;;;;;5011878;28;20873;-68
2022/04/14 07:00:57;;;;;;;0.40;0.20;;;13.20;99.90;;;;;;5006102;28;20393;-69
2022/04/14 07:03:26;;;;;;;0.40;0.20;;;13.20;99.90;;;;;;5013540;28;20424;-68
2022/04/14 07:05:54;;;;;;;0.40;0.20;;;13.30;99.90;;;;;;5007488;28;20469;-67
2022/04/14 07:08:21;;;;;;;0.40;0.20;;;13.40;99.90;;;;;;4998265;28;20419;-68
2022/04/14 07:10:47;;;;;;;0.40;0.30;;;13.40;99.90;;;;;;5005191;28;20413;-68
2022/04/14 07:13:13;;;;;;;0.40;0.20;;;13.40;99.90;;;;;;5008286;28;20400;-68
2022/04/14 07:15:39;;;;;;;0.40;0.30;;;13.60;99.90;;;;;;5010000;28;20416;-68
2022/04/14 07:18:05;;;;;;;0.40;0.30;;;13.70;99.90;;;;;;5001519;28;20658;-68
2022/04/14 07:20:31;;;;;;;0.50;0.40;;;13.80;99.90;;;;;;5008751;28;20404;-68
2022/04/14 07:22:59;;;;;;;0.40;0.20;;;13.90;99.90;;;;;;5009781;28;20716;-68
2022/04/14 07:25:24;;;;;;;0.50;0.50;;;14.00;99.90;;;;;;5010314;28;20402;-68
2022/04/14 07:27:53;;;;;;;0.40;0.40;;;14.00;99.90;;;;;;5008866;28;20405;-66
2022/04/14 07:30:20;;;;;;;0.50;0.50;;;14.20;99.90;;;;;;5002270;28;20424;-68
2022/04/14 07:32:45;;;;;;;0.40;0.30;;;14.20;99.90;;;;;;5003796;28;20404;-68
2022/04/14 07:35:13;;;;;;;0.40;0.20;;;14.30;99.90;;;;;;5008949;28;20400;-68
2022/04/14 07:37:38;;;;;;;0.40;0.20;;;14.40;99.90;;;;;;5007582;28;20805;-67
2022/04/14 07:40:08;;;;;;;0.50;0.50;;;14.60;99.90;;;;;;5012455;28;20405;-67
2022/04/14 07:42:39;;;;;;;1.80;0.73;;;14.70;99.90;;;;;;5011685;28;20392;-67
2022/04/14 07:45:07;;;;;;;0.40;0.25;;;14.80;99.90;;;;;;5012364;28;20393;-67
2022/04/14 07:47:33;;;;;;;0.82;0.40;;;15.00;99.90;;;;;;5011408;28;20472;-68
2022/04/14 07:49:59;;;;;;;1.90;1.10;;;15.20;99.90;;;;;;5013288;28;20405;-68
2022/04/14 07:52:25;;;;;;;0.40;0.40;;;15.30;99.90;;;;;;5011377;28;20781;-67
2022/04/14 07:54:51;;;;;;;0.40;0.20;;;15.50;99.90;;;;;;5011889;28;20917;-67
2022/04/14 07:57:17;;;;;;;0.40;0.20;;;15.70;99.90;;;;;;5012072;28;20413;-66
2022/04/14 07:59:42;;;;;;;1.10;1.00;;;15.90;99.90;;;;;;5009878;28;20397;-68
2022/04/14 08:02:08;;;;;;;0.40;0.30;;;15.80;99.90;;;;;;5006035;28;20392;-67
2022/04/14 08:04:34;;;;;;;0.40;0.20;;;15.80;99.90;;;;;;5006602;28;20446;-68
2022/04/14 08:07:00;;;;;;;0.40;0.40;;;16.00;99.90;;;;;;5005094;28;21383;-67
2022/04/14 08:09:26;;;;;;;0.40;0.20;;;15.90;99.90;;;;;;5010594;28;20385;-68
2022/04/14 08:11:52;;;;;;;0.43;0.22;;;16.10;99.90;;;;;;5027252;28;21311;-68
2022/04/14 08:14:18;;;;;;;0.40;0.30;;;16.00;99.90;;;;;;5011159;28;20391;-68
2022/04/14 08:16:43;;;;;;;0.80;0.80;;;16.10;99.90;;;;;;5009511;28;20503;-69
2022/04/14 08:19:09;;;;;;;0.40;0.30;;;16.00;99.90;;;;;;5010957;28;20389;-68
2022/04/14 08:21:35;;;;;;;0.40;0.20;;;16.00;99.90;;;;;;5011020;28;20389;-66
2022/04/14 08:24:02;;;;;;;0.50;0.50;;;16.00;99.90;;;;;;5010145;28;20381;-67
2022/04/14 08:26:28;;;;;;;0.40;0.30;;;16.10;99.90;;;;;;5008167;28;20395;-68
2022/04/14 08:28:56;;;;;;;0.40;0.40;;;16.20;99.90;;;;;;5010183;28;20711;-67
2022/04/14 08:31:24;;;;;;;0.40;0.20;;;16.30;99.90;;;;;;5010706;28;20409;-67
2022/04/14 08:33:50;;;;;;;0.40;0.30;;;16.30;99.90;;;;;;5009872;28;20389;-67
2022/04/14 08:36:16;;;;;;;0.40;0.30;;;16.30;99.90;;;;;;5015900;28;20448;-67
2022/04/14 08:38:46;;;;;;;1.00;0.80;;;16.40;99.90;;;;;;5010392;28;20408;-67
2022/04/14 08:41:14;;;;;;;0.70;0.70;;;16.40;99.90;;;;;;5004074;28;22266;-68
2022/04/14 08:44:00;;;;;;;0.50;0.50;;;16.50;99.90;;;;;;5006456;28;20396;-67
2022/04/14 08:46:28;;;;;;;0.60;0.60;;;16.40;99.90;;;;;;5007333;28;20830;-67
2022/04/14 08:48:59;;;;;;;0.65;0.65;;;16.40;99.90;;;;;;5012941;28;20462;-68
2022/04/14 08:51:33;;;;;;;0.40;0.30;;;16.50;99.90;;;;;;5010275;28;20404;-67
2022/04/14 08:53:59;;;;;;;0.40;0.30;;;16.40;99.90;;;;;;5016650;28;20390;-68
2022/04/14 08:56:25;;;;;;;0.40;0.30;;;16.50;99.90;;;;;;5013416;28;20829;-66
2022/04/14 08:58:56;;;;;;;0.40;0.30;;;16.60;99.90;;;;;;5006139;28;20395;-66
2022/04/14 09:01:26;;;;;;;0.40;0.20;;;16.70;99.90;;;;;;5012097;28;20483;-69
2022/04/14 09:03:57;;;;;;;0.43;0.32;;;16.60;99.90;;;;;;5010025;28;20393;-67
2022/04/14 09:06:23;;;;;;;0.40;0.40;;;16.70;99.90;;;;;;5020363;28;20775;-68
2022/04/14 09:08:50;;;;;;;0.40;0.40;;;16.70;99.90;;;;;;5009624;28;20389;-67
2022/04/14 09:11:16;;;;;;;0.40;0.30;;;16.70;99.90;;;;;;5008403;28;20956;-68
2022/04/14 09:13:44;;;;;;;0.40;0.30;;;16.80;99.90;;;;;;5007496;28;20398;-67
2022/04/14 09:16:11;;;;;;;0.40;0.20;;;16.80;99.90;;;;;;5007244;28;20439;-70
2022/04/14 09:18:37;;;;;;;0.40;0.30;;;16.90;99.90;;;;;;5006917;28;20461;-67
2022/04/14 09:21:04;;;;;;;0.40;0.20;;;17.00;99.90;;;;;;5008735;28;20472;-68
2022/04/14 09:23:31;;;;;;;0.40;0.40;;;17.20;99.90;;;;;;5006199;28;20912;-67
2022/04/14 09:26:03;;;;;;;0.70;0.70;;;17.30;99.90;;;;;;5009715;28;20393;-68
2022/04/14 09:28:29;;;;;;;1.90;0.80;;;17.60;99.90;;;;;;5005130;28;20400;-67
2022/04/14 09:31:05;;;;;;;0.40;0.30;;;17.40;99.90;;;;;;5006096;28;20389;-68
2022/04/14 09:33:45;;;;;;;0.40;0.30;;;17.50;99.90;;;;;;5000849;28;20398;-68
2022/04/14 09:36:18;;;;;;;0.75;0.75;;;17.40;99.90;;;;;;5004031;28;20420;-68
2022/04/14 09:39:01;;;;;;;0.80;0.80;;;17.30;99.90;;;;;;5007968;28;20443;-67
2022/04/14 09:41:53;;;;;;;0.40;0.40;;;17.50;99.90;;;;;;5004277;28;20753;-68
2022/04/14 09:44:19;;;;;;;0.40;0.30;;;17.60;99.90;;;;;;5006804;28;20805;-67
2022/04/14 09:46:48;;;;;;;0.90;0.43;;;17.50;99.90;;;;;;5007511;28;20543;-67
2022/04/14 09:49:18;;;;;;;0.40;0.30;;;17.70;99.90;;;;;;5009762;28;20400;-67
2022/04/14 09:51:45;;;;;;;0.60;0.60;;;17.70;99.90;;;;;;5015510;28;20401;-68
2022/04/14 09:54:16;;;;;;;0.40;0.30;;;17.70;99.90;;;;;;5013333;28;20875;-68
2022/04/14 09:56:53;;;;;;;0.55;0.55;;;17.80;99.90;;;;;;5002038;28;20422;-68
2022/04/14 09:59:22;;;;;;;0.90;0.80;;;17.90;99.90;;;;;;5014209;28;20408;-67
2022/04/14 10:01:49;;;;;;;0.50;0.50;;;18.00;99.90;;;;;;5013218;28;20498;-69
2022/04/14 10:04:34;;;;;;;2.40;0.90;;;18.10;99.90;;;;;;5014469;28;20397;-68
2022/04/14 10:07:11;;;;;;;0.50;0.50;;;18.00;99.90;;;;;;5013745;28;20412;-68
2022/04/14 10:09:42;;;;;;;1.10;1.10;;;18.10;99.90;;;;;;5014037;28;20388;-67
2022/04/14 10:12:23;;;;;;;0.40;0.30;;;18.10;99.90;;;;;;5014533;28;20671;-68
2022/04/14 10:14:58;;;;;;;0.50;0.50;;;18.20;99.90;;;;;;5013598;28;20428;-68
2022/04/14 10:17:28;;;;;;;1.30;0.80;;;18.50;99.90;;;;;;5013920;28;20839;-68
2022/04/14 10:19:54;;;;;;;0.90;0.90;;;18.40;99.90;;;;;;5013143;28;20408;-68
2022/04/14 10:22:21;;;;;;;1.00;1.00;;;18.40;99.90;;;;;;5013774;28;20412;-68
2022/04/14 10:24:48;;;;;;;1.10;0.60;;;18.50;99.90;;;;;;5009963;28;20427;-68
2022/04/14 10:27:16;;;;;;;0.90;0.90;;;18.80;99.90;;;;;;5004642;28;20500;-68
2022/04/14 10:29:43;;;;;;;0.88;0.88;;;18.80;99.90;;;;;;4994300;28;20394;-68
2022/04/14 10:32:11;;;;;;;0.40;0.20;;;18.70;99.90;;;;;;5008659;28;20384;-68
2022/04/14 10:34:38;;;;;;;0.50;0.40;;;18.80;99.90;;;;;;5014147;28;20388;-68
2022/04/14 10:37:07;;;;;;;0.40;0.38;;;18.80;99.90;;;;;;5012505;28;20913;-67
2022/04/14 10:39:39;;;;;;;0.40;0.30;;;18.80;99.90;;;;;;5005563;28;20460;-67
2022/04/14 10:42:07;;;;;;;0.40;0.30;;;18.90;99.90;;;;;;5008443;28;20752;-69
2022/04/14 10:44:47;;;;;;;0.40;0.20;;;18.90;99.90;;;;;;5012143;28;20451;-69
2022/04/14 10:47:33;;;;;;;0.40;0.30;;;19.20;99.90;;;;;;5012069;28;20897;-69
2022/04/14 10:49:59;;;;;;;0.50;0.40;;;18.90;99.90;;;;;;5011540;28;20404;-68
2022/04/14 10:52:27;;;;;;;0.40;0.30;;;19.40;99.90;;;;;;5011626;28;20393;-68
2022/04/14 10:54:57;;;;;;;0.80;0.63;;;19.50;99.90;;;;;;5013421;28;20389;-67
2022/04/14 10:57:39;;;;;;;0.82;0.82;;;19.60;99.10;;;;;;5012462;28;20424;-67
2022/04/14 11:00:20;;;;;;;2.20;1.30;;;19.60;99.90;;;;;;5013351;28;20377;-68
2022/04/14 11:03:11;;;;;;;0.40;0.20;;;20.10;98.70;;;;;;5013466;28;20393;-67
2022/04/14 11:05:49;;;;;;;0.57;0.55;;;20.00;98.30;;;;;;5012389;28;20439;-67
2022/04/14 11:08:27;;;;;;;1.90;0.90;;;19.80;98.50;;;;;;5004632;28;20460;-68
2022/04/14 11:11:10;;;;;;;0.50;0.50;;;20.00;98.90;;;;;;5011060;28;20450;-67
2022/04/14 11:13:51;;;;;;;0.40;0.30;;;19.90;99.10;;;;;;5014641;28;20877;-68
2022/04/14 11:16:46;;;;;;;3.22;1.98;;;19.90;99.90;;;;;;5003524;28;20448;-69
2022/04/14 11:19:22;;;;;;;1.70;1.50;;;19.90;99.20;;;;;;5012507;28;20424;-68
2022/04/14 11:22:07;;;;;;;1.30;1.00;;;19.90;98.40;;;;;;5012810;28;20385;-67
2022/04/14 11:24:35;;;;;;;0.60;0.60;;;19.90;98.30;;;;;;5012157;28;20381;-68
2022/04/14 11:27:22;;;;;;;0.90;0.90;;;20.00;98.10;;;;;;5012626;28;20389;-68
2022/04/14 11:29:51;;;;;;;0.60;0.60;;;20.30;97.30;;;;;;5012183;28;20446;-67
2022/04/14 11:32:41;;;;;;;0.40;0.30;;;20.40;96.80;;;;;;5012688;28;20527;-68
2022/04/14 11:35:18;;;;;;;0.40;0.30;;;20.70;96.50;;;;;;5012793;28;20401;-67
2022/04/14 11:37:45;;;;;;;0.90;0.70;;;21.40;94.90;;;;;;5011355;28;20417;-67
2022/04/14 11:40:21;;;;;;;0.90;0.90;;;22.10;92.50;;;;;;5011374;28;20389;-67
2022/04/14 11:42:52;;;;;;;1.20;1.10;;;21.90;92.10;;;;;;5011616;28;20421;-69
2022/04/14 11:45:28;;;;;;;0.40;0.30;;;22.10;90.70;;;;;;5012572;28;20442;-69
2022/04/14 11:48:00;;;;;;;0.40;0.30;;;22.00;90.20;;;;;;5008054;28;20394;-67
2022/04/14 11:50:29;;;;;;;0.40;0.30;;;22.90;88.90;;;;;;5011725;28;20431;-68
2022/04/14 11:53:02;;;;;;;0.60;0.60;;;22.70;86.70;;;;;;5010718;28;20524;-68
2022/04/14 11:55:38;;;;;;;0.65;0.45;;;22.10;89.10;;;;;;5012030;28;20388;-68
2022/04/14 11:58:11;;;;;;;0.90;0.80;;;21.90;89.70;;;;;;5008016;28;20411;-67
2022/04/14 12:00:47;;;;;;;0.50;0.40;;;22.60;88.80;;;;;;5002645;28;20865;-67
2022/04/14 12:03:14;;;;;;;0.40;0.20;;;22.90;87.80;;;;;;5010707;28;20385;-67
2022/04/14 12:05:48;;;;;;;0.60;0.50;;;22.80;86.90;;;;;;5011309;28;20385;-67
2022/04/14 12:08:14;;;;;;;0.40;0.30;;;22.50;90.20;;;;;;5007277;28;20409;-68
2022/04/14 12:10:40;;;;;;;1.40;1.10;;;22.70;88.00;;;;;;5006475;28;20450;-67
2022/04/14 12:13:10;;;;;;;0.43;0.35;;;22.90;86.30;;;;;;4998823;28;20690;-69
2022/04/14 12:15:36;;;;;;;0.40;0.20;;;21.40;88.50;;;;;;5008735;28;20404;-67
2022/04/14 12:18:10;;;;;;;0.50;0.50;;;22.50;88.00;;;;;;5009267;28;20509;-67
2022/04/14 12:20:43;;;;;;;0.50;0.50;;;23.10;85.80;;;;;;5011676;28;20734;-68
2022/04/14 12:23:10;;;;;;;0.70;0.70;;;23.10;83.50;;;;;;5008830;28;20397;-68
2022/04/14 12:25:37;;;;;;;0.40;0.20;;;23.80;82.60;;;;;;5011338;28;20848;-68
2022/04/14 12:28:04;;;;;;;0.40;0.33;;;23.30;81.30;;;;;;4987125;28;20771;-68
2022/04/14 12:30:31;;;;;;;0.70;0.70;;;23.20;82.90;;;;;;4991922;28;20963;-68
2022/04/14 12:33:04;;;;;;;0.40;0.40;;;22.80;82.10;;;;;;4991809;28;20720;-70
2022/04/14 12:35:32;;;;;;;0.40;0.30;;;22.00;83.80;;;;;;4991736;28;20455;-66
2022/04/14 12:38:25;;;;;;;0.90;0.70;;;22.10;86.30;;;;;;4998144;28;20432;-67
2022/04/14 12:41:02;;;;;;;0.40;0.23;;;22.20;86.50;;;;;;5011415;28;20492;-67
2022/04/14 12:43:55;;;;;;;0.70;0.70;;;22.20;86.60;;;;;;5009884;28;20389;-67
2022/04/14 12:46:22;;;;;;;0.40;0.20;;;22.80;84.50;;;;;;5009911;28;20379;-67
2022/04/14 12:48:58;;;;;;;0.50;0.40;;;23.30;81.60;;;;;;5011243;28;20381;-68
2022/04/14 12:51:32;;;;;;;0.40;0.20;;;22.50;82.80;;;;;;5010401;28;20443;-67
2022/04/14 12:53:59;;;;;;;0.50;0.43;;;22.40;83.30;;;;;;5010650;28;20390;-67